CYMX/YMX METAR and TAF weather

Enter ICAO airport designator
Station Type Date Time Source
CYMX METAR 2018/04/21 20:00 UTC NOAA

CYMX 212000Z 30007G18KT 270V330 45SM FEW050 11/M09 A3027 RMK CF1 CF TR SLP253


Station Type Date Time Source
CYMX Decoded METAR 2018/04/21 20:00 UTC NOAA

Montreal / Mirabel, Canada (CYMX) 45-41N 074-02W
Apr 21, 2018 - 04:00 PM EDT / 2018.04.21 2000 UTC
Wind: from the WNW (300 degrees) at 8 MPH (7 KT) gusting to 21 MPH (18 KT) (direction variable):0
Visibility: 45 mile(s):0
Sky conditions: mostly clear
Temperature: 51 F (11 C)
Dew Point: 15 F (-9 C)
Relative Humidity: 23%
Pressure (altimeter): 30.27 in. Hg (1025 hPa)
ob: CYMX 212000Z 30007G18KT 270V330 45SM FEW050 11/M09 A3027 RMK CF1 CF TR SLP253
cycle: 20

Station Type Date Time Source
CYMX TAF 2018/04/21 18:42 UTC NOAA

TAF CYMX 211738Z 2118/2218 32010G20KT P6SM FEW050
BECMG 2123/2201 32003KT SKC
FM221700 31007KT P6SM SKC
RMK NXT FCST BY 220000Z


Example: see airport list